sensor_id;sensor_type;location;lat;lon;timestamp;P1;durP1;ratioP1;P2;durP2;ratioP2
12774;SDS011;6451;42.630;23.382;2022-12-22T00:00:02;16.23;;;10.70;;
12774;SDS011;6451;42.630;23.382;2022-12-22T00:02:47;16.97;;;10.43;;
12774;SDS011;6451;42.630;23.382;2022-12-22T00:05:31;15.60;;;10.10;;
12774;SDS011;6451;42.630;23.382;2022-12-22T00:08:15;16.23;;;11.03;;
12774;SDS011;6451;42.630;23.382;2022-12-22T00:11:00;17.37;;;11.17;;
12774;SDS011;6451;42.630;23.382;2022-12-22T00:13:45;17.73;;;11.13;;
12774;SDS011;6451;42.630;23.382;2022-12-22T00:16:32;19.30;;;12.10;;
12774;SDS011;6451;42.630;23.382;2022-12-22T00:19:17;18.90;;;12.40;;
12774;SDS011;6451;42.630;23.382;2022-12-22T00:22:03;19.20;;;12.20;;
12774;SDS011;6451;42.630;23.382;2022-12-22T00:24:55;18.53;;;12.33;;
12774;SDS011;6451;42.630;23.382;2022-12-22T00:27:40;18.23;;;12.17;;
12774;SDS011;6451;42.630;23.382;2022-12-22T00:30:25;20.77;;;12.50;;
12774;SDS011;6451;42.630;23.382;2022-12-22T00:33:11;20.97;;;12.37;;
12774;SDS011;6451;42.630;23.382;2022-12-22T00:35:59;19.10;;;11.93;;
12774;SDS011;6451;42.630;23.382;2022-12-22T00:38:45;16.47;;;10.97;;
12774;SDS011;6451;42.630;23.382;2022-12-22T00:41:29;17.57;;;10.77;;
12774;SDS011;6451;42.630;23.382;2022-12-22T00:44:14;17.47;;;10.67;;
12774;SDS011;6451;42.630;23.382;2022-12-22T00:46:58;16.87;;;10.97;;
12774;SDS011;6451;42.630;23.382;2022-12-22T00:49:46;16.17;;;10.97;;
12774;SDS011;6451;42.630;23.382;2022-12-22T00:52:32;16.47;;;10.53;;
12774;SDS011;6451;42.630;23.382;2022-12-22T00:55:18;14.70;;;9.30;;
12774;SDS011;6451;42.630;23.382;2022-12-22T00:58:10;13.47;;;10.00;;
12774;SDS011;6451;42.630;23.382;2022-12-22T01:00:58;14.07;;;10.20;;
12774;SDS011;6451;42.630;23.382;2022-12-22T01:03:44;14.00;;;9.90;;
12774;SDS011;6451;42.630;23.382;2022-12-22T01:06:30;14.60;;;9.97;;
12774;SDS011;6451;42.630;23.382;2022-12-22T01:09:17;13.27;;;9.80;;
12774;SDS011;6451;42.630;23.382;2022-12-22T01:12:02;15.33;;;10.20;;
12774;SDS011;6451;42.630;23.382;2022-12-22T01:14:49;14.73;;;10.00;;
12774;SDS011;6451;42.630;23.382;2022-12-22T01:17:33;17.43;;;11.03;;
12774;SDS011;6451;42.630;23.382;2022-12-22T01:20:18;16.67;;;11.27;;
12774;SDS011;6451;42.630;23.382;2022-12-22T01:23:07;17.97;;;10.73;;
12774;SDS011;6451;42.630;23.382;2022-12-22T01:25:54;16.33;;;10.93;;
12774;SDS011;6451;42.630;23.382;2022-12-22T01:28:39;21.27;;;12.93;;
12774;SDS011;6451;42.630;23.382;2022-12-22T01:31:25;22.43;;;12.17;;
12774;SDS011;6451;42.630;23.382;2022-12-22T01:34:12;15.77;;;11.17;;
12774;SDS011;6451;42.630;23.382;2022-12-22T01:36:57;15.23;;;10.07;;
12774;SDS011;6451;42.630;23.382;2022-12-22T01:39:42;13.87;;;10.10;;
12774;SDS011;6451;42.630;23.382;2022-12-22T01:42:27;17.60;;;10.17;;
12774;SDS011;6451;42.630;23.382;2022-12-22T01:45:17;16.73;;;10.07;;
12774;SDS011;6451;42.630;23.382;2022-12-22T01:48:04;14.40;;;9.87;;
12774;SDS011;6451;42.630;23.382;2022-12-22T01:50:49;14.87;;;9.60;;
12774;SDS011;6451;42.630;23.382;2022-12-22T01:53:35;15.50;;;9.90;;
12774;SDS011;6451;42.630;23.382;2022-12-22T01:56:22;15.37;;;9.83;;
12774;SDS011;6451;42.630;23.382;2022-12-22T01:59:06;15.90;;;9.73;;
12774;SDS011;6451;42.630;23.382;2022-12-22T02:01:50;14.43;;;9.90;;
12774;SDS011;6451;42.630;23.382;2022-12-22T02:04:35;13.50;;;9.87;;
12774;SDS011;6451;42.630;23.382;2022-12-22T02:07:39;14.63;;;9.83;;
12774;SDS011;6451;42.630;23.382;2022-12-22T02:10:43;14.60;;;10.17;;
12774;SDS011;6451;42.630;23.382;2022-12-22T02:13:41;15.73;;;9.97;;
12774;SDS011;6451;42.630;23.382;2022-12-22T02:16:42;16.20;;;9.97;;
12774;SDS011;6451;42.630;23.382;2022-12-22T02:19:43;15.03;;;9.67;;
12774;SDS011;6451;42.630;23.382;2022-12-22T02:22:45;14.37;;;10.03;;
12774;SDS011;6451;42.630;23.382;2022-12-22T02:25:40;13.17;;;9.00;;
12774;SDS011;6451;42.630;23.382;2022-12-22T02:28:31;13.47;;;9.20;;
12774;SDS011;6451;42.630;23.382;2022-12-22T02:31:17;13.67;;;9.43;;
12774;SDS011;6451;42.630;23.382;2022-12-22T02:34:02;12.57;;;8.67;;
12774;SDS011;6451;42.630;23.382;2022-12-22T02:36:49;12.70;;;8.90;;
12774;SDS011;6451;42.630;23.382;2022-12-22T02:39:42;14.10;;;8.97;;
12774;SDS011;6451;42.630;23.382;2022-12-22T02:42:33;12.27;;;8.80;;
12774;SDS011;6451;42.630;23.382;2022-12-22T02:45:22;16.33;;;10.87;;
12774;SDS011;6451;42.630;23.382;2022-12-22T02:48:15;16.83;;;10.97;;
12774;SDS011;6451;42.630;23.382;2022-12-22T02:51:04;18.50;;;12.10;;
12774;SDS011;6451;42.630;23.382;2022-12-22T02:53:52;32.33;;;18.83;;
12774;SDS011;6451;42.630;23.382;2022-12-22T02:56:39;34.37;;;21.50;;
12774;SDS011;6451;42.630;23.382;2022-12-22T02:59:27;32.70;;;19.47;;
12774;SDS011;6451;42.630;23.382;2022-12-22T03:02:13;34.17;;;19.23;;
12774;SDS011;6451;42.630;23.382;2022-12-22T03:04:57;31.17;;;18.63;;
12774;SDS011;6451;42.630;23.382;2022-12-22T03:07:41;29.30;;;17.90;;
12774;SDS011;6451;42.630;23.382;2022-12-22T03:10:26;27.30;;;17.80;;
12774;SDS011;6451;42.630;23.382;2022-12-22T03:13:10;26.93;;;16.67;;
12774;SDS011;6451;42.630;23.382;2022-12-22T03:15:55;26.03;;;16.90;;
12774;SDS011;6451;42.630;23.382;2022-12-22T03:18:41;27.43;;;17.87;;
12774;SDS011;6451;42.630;23.382;2022-12-22T03:21:25;28.60;;;19.17;;
12774;SDS011;6451;42.630;23.382;2022-12-22T03:24:09;32.27;;;18.97;;
12774;SDS011;6451;42.630;23.382;2022-12-22T03:26:54;32.17;;;19.07;;
12774;SDS011;6451;42.630;23.382;2022-12-22T03:29:20;35.07;;;20.70;;
12774;SDS011;6451;42.630;23.382;2022-12-22T03:31:47;29.33;;;19.47;;
12774;SDS011;6451;42.630;23.382;2022-12-22T03:34:16;36.67;;;21.83;;
12774;SDS011;6451;42.630;23.382;2022-12-22T03:36:42;32.53;;;20.33;;
12774;SDS011;6451;42.630;23.382;2022-12-22T03:39:09;31.63;;;20.63;;
12774;SDS011;6451;42.630;23.382;2022-12-22T03:41:36;34.60;;;20.50;;
12774;SDS011;6451;42.630;23.382;2022-12-22T03:44:21;30.27;;;19.93;;
12774;SDS011;6451;42.630;23.382;2022-12-22T03:47:05;33.63;;;19.87;;
12774;SDS011;6451;42.630;23.382;2022-12-22T03:49:33;34.53;;;21.60;;
12774;SDS011;6451;42.630;23.382;2022-12-22T03:52:00;32.10;;;21.47;;
12774;SDS011;6451;42.630;23.382;2022-12-22T03:54:27;38.20;;;21.10;;
12774;SDS011;6451;42.630;23.382;2022-12-22T03:56:54;25.80;;;15.90;;
12774;SDS011;6451;42.630;23.382;2022-12-22T03:59:21;19.90;;;12.70;;
12774;SDS011;6451;42.630;23.382;2022-12-22T04:01:48;16.53;;;11.30;;
12774;SDS011;6451;42.630;23.382;2022-12-22T04:04:16;17.87;;;10.70;;
12774;SDS011;6451;42.630;23.382;2022-12-22T04:06:46;16.33;;;10.87;;
12774;SDS011;6451;42.630;23.382;2022-12-22T04:09:13;12.83;;;9.53;;
12774;SDS011;6451;42.630;23.382;2022-12-22T04:11:40;13.97;;;9.77;;
12774;SDS011;6451;42.630;23.382;2022-12-22T04:14:25;14.73;;;9.90;;
12774;SDS011;6451;42.630;23.382;2022-12-22T04:16:52;12.60;;;9.33;;
12774;SDS011;6451;42.630;23.382;2022-12-22T04:19:19;13.83;;;9.57;;
12774;SDS011;6451;42.630;23.382;2022-12-22T04:21:50;12.57;;;9.20;;
12774;SDS011;6451;42.630;23.382;2022-12-22T04:24:17;16.30;;;9.47;;
12774;SDS011;6451;42.630;23.382;2022-12-22T04:26:44;16.17;;;9.20;;
12774;SDS011;6451;42.630;23.382;2022-12-22T04:29:10;13.27;;;9.47;;
12774;SDS011;6451;42.630;23.382;2022-12-22T04:31:37;14.20;;;8.83;;
12774;SDS011;6451;42.630;23.382;2022-12-22T04:34:04;13.33;;;9.37;;
12774;SDS011;6451;42.630;23.382;2022-12-22T04:36:31;12.23;;;9.10;;
12774;SDS011;6451;42.630;23.382;2022-12-22T04:39:00;14.87;;;8.93;;
12774;SDS011;6451;42.630;23.382;2022-12-22T04:41:27;12.80;;;8.10;;
12774;SDS011;6451;42.630;23.382;2022-12-22T04:43:54;12.80;;;8.37;;
12774;SDS011;6451;42.630;23.382;2022-12-22T04:46:21;13.07;;;9.10;;
12774;SDS011;6451;42.630;23.382;2022-12-22T04:48:49;15.13;;;9.50;;
12774;SDS011;6451;42.630;23.382;2022-12-22T04:51:16;13.97;;;9.47;;
12774;SDS011;6451;42.630;23.382;2022-12-22T04:53:42;13.70;;;9.20;;
12774;SDS011;6451;42.630;23.382;2022-12-22T04:56:11;15.03;;;9.77;;
12774;SDS011;6451;42.630;23.382;2022-12-22T04:58:37;15.33;;;10.57;;
12774;SDS011;6451;42.630;23.382;2022-12-22T05:01:08;17.60;;;9.97;;
12774;SDS011;6451;42.630;23.382;2022-12-22T05:03:36;17.53;;;11.40;;
12774;SDS011;6451;42.630;23.382;2022-12-22T05:06:03;19.13;;;11.67;;
12774;SDS011;6451;42.630;23.382;2022-12-22T05:08:30;22.70;;;13.17;;
12774;SDS011;6451;42.630;23.382;2022-12-22T05:10:57;17.67;;;10.83;;
12774;SDS011;6451;42.630;23.382;2022-12-22T05:13:25;17.97;;;12.43;;
12774;SDS011;6451;42.630;23.382;2022-12-22T05:15:52;17.63;;;12.17;;
12774;SDS011;6451;42.630;23.382;2022-12-22T05:18:19;17.77;;;12.03;;
12774;SDS011;6451;42.630;23.382;2022-12-22T05:20:46;17.87;;;11.77;;
12774;SDS011;6451;42.630;23.382;2022-12-22T05:23:14;15.70;;;10.90;;
12774;SDS011;6451;42.630;23.382;2022-12-22T05:25:40;15.73;;;10.83;;
12774;SDS011;6451;42.630;23.382;2022-12-22T05:28:07;15.17;;;11.03;;
12774;SDS011;6451;42.630;23.382;2022-12-22T05:30:36;17.00;;;11.60;;
12774;SDS011;6451;42.630;23.382;2022-12-22T05:33:02;19.87;;;11.27;;
12774;SDS011;6451;42.630;23.382;2022-12-22T05:35:29;17.73;;;11.77;;
12774;SDS011;6451;42.630;23.382;2022-12-22T05:37:57;16.83;;;10.40;;
12774;SDS011;6451;42.630;23.382;2022-12-22T05:40:25;16.50;;;10.57;;
12774;SDS011;6451;42.630;23.382;2022-12-22T05:42:52;17.23;;;10.80;;
12774;SDS011;6451;42.630;23.382;2022-12-22T05:45:19;16.10;;;11.23;;
12774;SDS011;6451;42.630;23.382;2022-12-22T05:47:49;18.33;;;11.10;;
12774;SDS011;6451;42.630;23.382;2022-12-22T05:50:18;18.20;;;11.03;;
12774;SDS011;6451;42.630;23.382;2022-12-22T05:52:46;15.53;;;10.67;;
12774;SDS011;6451;42.630;23.382;2022-12-22T05:55:13;19.83;;;11.80;;
12774;SDS011;6451;42.630;23.382;2022-12-22T05:57:41;19.23;;;12.50;;
12774;SDS011;6451;42.630;23.382;2022-12-22T06:00:09;17.80;;;11.50;;
12774;SDS011;6451;42.630;23.382;2022-12-22T06:02:39;21.63;;;13.00;;
12774;SDS011;6451;42.630;23.382;2022-12-22T06:05:08;17.70;;;11.53;;
12774;SDS011;6451;42.630;23.382;2022-12-22T06:07:36;19.50;;;11.93;;
12774;SDS011;6451;42.630;23.382;2022-12-22T06:10:06;16.60;;;12.40;;
12774;SDS011;6451;42.630;23.382;2022-12-22T06:12:34;21.50;;;12.20;;
12774;SDS011;6451;42.630;23.382;2022-12-22T06:15:01;21.07;;;12.37;;
12774;SDS011;6451;42.630;23.382;2022-12-22T06:17:29;18.67;;;12.63;;
12774;SDS011;6451;42.630;23.382;2022-12-22T06:19:56;29.97;;;18.47;;
12774;SDS011;6451;42.630;23.382;2022-12-22T06:22:24;21.70;;;12.57;;
12774;SDS011;6451;42.630;23.382;2022-12-22T06:24:51;25.47;;;11.73;;
12774;SDS011;6451;42.630;23.382;2022-12-22T06:27:18;17.97;;;11.50;;
12774;SDS011;6451;42.630;23.382;2022-12-22T06:29:44;18.00;;;11.47;;
12774;SDS011;6451;42.630;23.382;2022-12-22T06:32:11;18.23;;;10.87;;
12774;SDS011;6451;42.630;23.382;2022-12-22T06:34:38;16.57;;;11.10;;
12774;SDS011;6451;42.630;23.382;2022-12-22T06:37:05;18.63;;;11.40;;
12774;SDS011;6451;42.630;23.382;2022-12-22T06:39:33;17.03;;;11.13;;
12774;SDS011;6451;42.630;23.382;2022-12-22T06:42:00;19.53;;;11.47;;
12774;SDS011;6451;42.630;23.382;2022-12-22T06:44:47;18.60;;;11.73;;
12774;SDS011;6451;42.630;23.382;2022-12-22T06:47:14;19.50;;;11.53;;
12774;SDS011;6451;42.630;23.382;2022-12-22T06:49:41;20.00;;;13.13;;
12774;SDS011;6451;42.630;23.382;2022-12-22T06:52:08;22.57;;;13.07;;
12774;SDS011;6451;42.630;23.382;2022-12-22T06:54:36;18.87;;;13.00;;
12774;SDS011;6451;42.630;23.382;2022-12-22T06:57:03;18.80;;;13.37;;
12774;SDS011;6451;42.630;23.382;2022-12-22T06:59:32;21.90;;;13.50;;
12774;SDS011;6451;42.630;23.382;2022-12-22T07:01:59;19.47;;;13.40;;
12774;SDS011;6451;42.630;23.382;2022-12-22T07:04:26;19.97;;;12.67;;
12774;SDS011;6451;42.630;23.382;2022-12-22T07:06:54;17.20;;;12.60;;
12774;SDS011;6451;42.630;23.382;2022-12-22T07:09:20;19.20;;;12.53;;
12774;SDS011;6451;42.630;23.382;2022-12-22T07:11:49;24.63;;;13.93;;
12774;SDS011;6451;42.630;23.382;2022-12-22T07:14:15;21.43;;;12.97;;
12774;SDS011;6451;42.630;23.382;2022-12-22T07:16:42;19.77;;;13.43;;
12774;SDS011;6451;42.630;23.382;2022-12-22T07:19:11;22.60;;;13.80;;
12774;SDS011;6451;42.630;23.382;2022-12-22T07:21:37;19.80;;;13.83;;
12774;SDS011;6451;42.630;23.382;2022-12-22T07:24:05;21.33;;;14.50;;
12774;SDS011;6451;42.630;23.382;2022-12-22T07:26:32;22.73;;;14.20;;
12774;SDS011;6451;42.630;23.382;2022-12-22T07:29:00;19.20;;;13.40;;
12774;SDS011;6451;42.630;23.382;2022-12-22T07:31:29;20.23;;;14.20;;
12774;SDS011;6451;42.630;23.382;2022-12-22T07:33:56;20.63;;;14.03;;
12774;SDS011;6451;42.630;23.382;2022-12-22T07:36:23;20.73;;;14.27;;
12774;SDS011;6451;42.630;23.382;2022-12-22T07:38:50;20.90;;;15.20;;
12774;SDS011;6451;42.630;23.382;2022-12-22T07:41:18;26.17;;;16.23;;
12774;SDS011;6451;42.630;23.382;2022-12-22T07:44:05;22.80;;;15.83;;
12774;SDS011;6451;42.630;23.382;2022-12-22T07:46:33;25.10;;;17.30;;
12774;SDS011;6451;42.630;23.382;2022-12-22T07:49:01;28.43;;;17.67;;
12774;SDS011;6451;42.630;23.382;2022-12-22T07:51:46;31.43;;;20.30;;
12774;SDS011;6451;42.630;23.382;2022-12-22T07:54:14;27.57;;;19.03;;
12774;SDS011;6451;42.630;23.382;2022-12-22T07:56:42;44.33;;;25.70;;
12774;SDS011;6451;42.630;23.382;2022-12-22T07:59:12;39.97;;;25.20;;
12774;SDS011;6451;42.630;23.382;2022-12-22T08:01:39;33.57;;;21.77;;
12774;SDS011;6451;42.630;23.382;2022-12-22T08:04:07;33.57;;;21.67;;
12774;SDS011;6451;42.630;23.382;2022-12-22T08:06:34;30.33;;;20.60;;
12774;SDS011;6451;42.630;23.382;2022-12-22T08:09:02;36.43;;;22.53;;
12774;SDS011;6451;42.630;23.382;2022-12-22T08:11:30;33.70;;;22.30;;
12774;SDS011;6451;42.630;23.382;2022-12-22T08:13:58;28.77;;;20.50;;
12774;SDS011;6451;42.630;23.382;2022-12-22T08:16:26;31.53;;;21.23;;
12774;SDS011;6451;42.630;23.382;2022-12-22T08:18:54;35.27;;;22.73;;
12774;SDS011;6451;42.630;23.382;2022-12-22T08:21:21;34.17;;;22.70;;
12774;SDS011;6451;42.630;23.382;2022-12-22T08:23:48;35.60;;;22.33;;
12774;SDS011;6451;42.630;23.382;2022-12-22T08:26:16;37.73;;;23.43;;
12774;SDS011;6451;42.630;23.382;2022-12-22T08:28:47;38.60;;;23.40;;
12774;SDS011;6451;42.630;23.382;2022-12-22T08:31:18;39.67;;;23.90;;
12774;SDS011;6451;42.630;23.382;2022-12-22T08:33:48;36.50;;;24.80;;
12774;SDS011;6451;42.630;23.382;2022-12-22T08:36:15;38.33;;;24.33;;
12774;SDS011;6451;42.630;23.382;2022-12-22T08:38:42;34.33;;;24.70;;
12774;SDS011;6451;42.630;23.382;2022-12-22T08:41:09;41.83;;;28.13;;
12774;SDS011;6451;42.630;23.382;2022-12-22T08:43:39;55.23;;;33.43;;
12774;SDS011;6451;42.630;23.382;2022-12-22T08:46:07;54.80;;;33.57;;
12774;SDS011;6451;42.630;23.382;2022-12-22T08:48:36;55.67;;;35.50;;
12774;SDS011;6451;42.630;23.382;2022-12-22T08:51:05;53.03;;;35.33;;
12774;SDS011;6451;42.630;23.382;2022-12-22T08:53:32;55.27;;;35.60;;
12774;SDS011;6451;42.630;23.382;2022-12-22T08:55:58;57.77;;;36.87;;
12774;SDS011;6451;42.630;23.382;2022-12-22T08:58:25;55.30;;;39.50;;
12774;SDS011;6451;42.630;23.382;2022-12-22T09:00:52;60.90;;;40.83;;
12774;SDS011;6451;42.630;23.382;2022-12-22T09:03:20;61.47;;;40.60;;
12774;SDS011;6451;42.630;23.382;2022-12-22T09:05:47;62.30;;;40.27;;
12774;SDS011;6451;42.630;23.382;2022-12-22T09:08:15;63.60;;;40.70;;
12774;SDS011;6451;42.630;23.382;2022-12-22T09:10:43;62.53;;;39.17;;
12774;SDS011;6451;42.630;23.382;2022-12-22T09:13:10;58.23;;;37.90;;
12774;SDS011;6451;42.630;23.382;2022-12-22T09:15:36;56.47;;;37.33;;
12774;SDS011;6451;42.630;23.382;2022-12-22T09:18:03;56.73;;;36.20;;
12774;SDS011;6451;42.630;23.382;2022-12-22T09:20:30;53.50;;;36.03;;
12774;SDS011;6451;42.630;23.382;2022-12-22T09:22:58;54.37;;;37.33;;
12774;SDS011;6451;42.630;23.382;2022-12-22T09:25:26;51.33;;;35.60;;
12774;SDS011;6451;42.630;23.382;2022-12-22T09:27:53;56.03;;;36.03;;
12774;SDS011;6451;42.630;23.382;2022-12-22T09:30:20;53.07;;;36.13;;
12774;SDS011;6451;42.630;23.382;2022-12-22T09:32:47;54.70;;;34.97;;
12774;SDS011;6451;42.630;23.382;2022-12-22T09:35:14;55.50;;;34.33;;
12774;SDS011;6451;42.630;23.382;2022-12-22T09:37:41;54.80;;;35.27;;
12774;SDS011;6451;42.630;23.382;2022-12-22T09:40:08;53.40;;;36.67;;
12774;SDS011;6451;42.630;23.382;2022-12-22T09:42:37;54.87;;;36.30;;
12774;SDS011;6451;42.630;23.382;2022-12-22T09:45:08;53.70;;;34.30;;
12774;SDS011;6451;42.630;23.382;2022-12-22T09:47:44;51.40;;;33.20;;
12774;SDS011;6451;42.630;23.382;2022-12-22T09:50:17;46.70;;;32.20;;
12774;SDS011;6451;42.630;23.382;2022-12-22T09:52:48;46.40;;;31.83;;
12774;SDS011;6451;42.630;23.382;2022-12-22T09:55:22;49.40;;;32.27;;
12774;SDS011;6451;42.630;23.382;2022-12-22T09:57:59;47.40;;;31.17;;
12774;SDS011;6451;42.630;23.382;2022-12-22T10:00:26;44.10;;;29.80;;
12774;SDS011;6451;42.630;23.382;2022-12-22T10:02:55;48.97;;;30.87;;
12774;SDS011;6451;42.630;23.382;2022-12-22T10:05:30;43.07;;;29.60;;
12774;SDS011;6451;42.630;23.382;2022-12-22T10:08:08;43.60;;;29.20;;
12774;SDS011;6451;42.630;23.382;2022-12-22T10:10:38;46.43;;;29.77;;
12774;SDS011;6451;42.630;23.382;2022-12-22T10:13:10;42.00;;;29.37;;
12774;SDS011;6451;42.630;23.382;2022-12-22T10:15:42;46.73;;;30.10;;
12774;SDS011;6451;42.630;23.382;2022-12-22T10:18:16;43.80;;;29.33;;
12774;SDS011;6451;42.630;23.382;2022-12-22T10:20:45;48.27;;;29.97;;
12774;SDS011;6451;42.630;23.382;2022-12-22T10:23:14;42.70;;;28.90;;
12774;SDS011;6451;42.630;23.382;2022-12-22T10:25:45;45.30;;;29.60;;
12774;SDS011;6451;42.630;23.382;2022-12-22T10:28:32;46.07;;;30.50;;
12774;SDS011;6451;42.630;23.382;2022-12-22T10:31:09;42.53;;;30.80;;
12774;SDS011;6451;42.630;23.382;2022-12-22T10:33:39;50.00;;;31.63;;
12774;SDS011;6451;42.630;23.382;2022-12-22T10:36:07;43.73;;;30.47;;
12774;SDS011;6451;42.630;23.382;2022-12-22T10:38:35;47.33;;;30.73;;
12774;SDS011;6451;42.630;23.382;2022-12-22T10:41:07;48.40;;;31.30;;
12774;SDS011;6451;42.630;23.382;2022-12-22T10:43:46;49.80;;;32.60;;
12774;SDS011;6451;42.630;23.382;2022-12-22T10:46:14;45.97;;;31.63;;
12774;SDS011;6451;42.630;23.382;2022-12-22T10:48:42;51.30;;;32.87;;
12774;SDS011;6451;42.630;23.382;2022-12-22T10:51:10;48.80;;;32.47;;
12774;SDS011;6451;42.630;23.382;2022-12-22T10:53:39;51.67;;;33.70;;
12774;SDS011;6451;42.630;23.382;2022-12-22T10:56:16;46.50;;;33.40;;
12774;SDS011;6451;42.630;23.382;2022-12-22T10:58:54;57.03;;;33.33;;
12774;SDS011;6451;42.630;23.382;2022-12-22T11:01:23;51.40;;;32.47;;
12774;SDS011;6451;42.630;23.382;2022-12-22T11:03:53;46.57;;;32.13;;
12774;SDS011;6451;42.630;23.382;2022-12-22T11:06:20;45.60;;;31.40;;
12774;SDS011;6451;42.630;23.382;2022-12-22T11:08:47;47.97;;;32.17;;
12774;SDS011;6451;42.630;23.382;2022-12-22T11:11:17;50.73;;;32.10;;
12774;SDS011;6451;42.630;23.382;2022-12-22T11:14:07;42.03;;;30.70;;
12774;SDS011;6451;42.630;23.382;2022-12-22T11:16:41;44.77;;;32.20;;
12774;SDS011;6451;42.630;23.382;2022-12-22T11:19:25;45.80;;;31.57;;
12774;SDS011;6451;42.630;23.382;2022-12-22T11:22:09;42.93;;;31.27;;
12774;SDS011;6451;42.630;23.382;2022-12-22T11:24:45;42.27;;;29.30;;
12774;SDS011;6451;42.630;23.382;2022-12-22T11:27:25;44.57;;;30.93;;
12774;SDS011;6451;42.630;23.382;2022-12-22T11:30:02;46.77;;;31.73;;
12774;SDS011;6451;42.630;23.382;2022-12-22T11:32:40;46.03;;;31.77;;
12774;SDS011;6451;42.630;23.382;2022-12-22T11:35:24;46.37;;;30.47;;
12774;SDS011;6451;42.630;23.382;2022-12-22T11:38:04;54.30;;;32.67;;
12774;SDS011;6451;42.630;23.382;2022-12-22T11:40:40;49.93;;;33.10;;
12774;SDS011;6451;42.630;23.382;2022-12-22T11:43:20;42.63;;;31.60;;
12774;SDS011;6451;42.630;23.382;2022-12-22T11:45:56;50.53;;;32.70;;
12774;SDS011;6451;42.630;23.382;2022-12-22T11:48:51;45.57;;;32.40;;
12774;SDS011;6451;42.630;23.382;2022-12-22T11:51:50;43.23;;;30.43;;
12774;SDS011;6451;42.630;23.382;2022-12-22T11:54:33;48.20;;;32.30;;
12774;SDS011;6451;42.630;23.382;2022-12-22T11:57:22;44.33;;;31.67;;
12774;SDS011;6451;42.630;23.382;2022-12-22T12:00:00;42.70;;;31.67;;
12774;SDS011;6451;42.630;23.382;2022-12-22T12:02:58;43.73;;;30.53;;
12774;SDS011;6451;42.630;23.382;2022-12-22T12:05:39;47.93;;;30.07;;
12774;SDS011;6451;42.630;23.382;2022-12-22T12:08:24;44.63;;;30.70;;
12774;SDS011;6451;42.630;23.382;2022-12-22T12:11:01;46.63;;;30.23;;
12774;SDS011;6451;42.630;23.382;2022-12-22T12:13:37;47.97;;;30.27;;
12774;SDS011;6451;42.630;23.382;2022-12-22T12:16:12;50.20;;;31.10;;
12774;SDS011;6451;42.630;23.382;2022-12-22T12:18:55;48.67;;;31.37;;
12774;SDS011;6451;42.630;23.382;2022-12-22T12:21:39;49.77;;;31.33;;
12774;SDS011;6451;42.630;23.382;2022-12-22T12:24:23;43.10;;;30.93;;
12774;SDS011;6451;42.630;23.382;2022-12-22T12:27:02;51.77;;;31.47;;
12774;SDS011;6451;42.630;23.382;2022-12-22T12:29:38;47.23;;;31.93;;
12774;SDS011;6451;42.630;23.382;2022-12-22T12:32:09;42.83;;;31.70;;
12774;SDS011;6451;42.630;23.382;2022-12-22T12:34:43;46.00;;;30.77;;
12774;SDS011;6451;42.630;23.382;2022-12-22T12:37:15;49.60;;;32.93;;
12774;SDS011;6451;42.630;23.382;2022-12-22T12:39:49;44.53;;;30.57;;
12774;SDS011;6451;42.630;23.382;2022-12-22T12:42:25;45.77;;;31.93;;
12774;SDS011;6451;42.630;23.382;2022-12-22T12:44:56;46.83;;;31.40;;
12774;SDS011;6451;42.630;23.382;2022-12-22T12:47:25;45.07;;;31.27;;
12774;SDS011;6451;42.630;23.382;2022-12-22T13:10:38;47.03;;;30.60;;
12774;SDS011;6451;42.630;23.382;2022-12-22T13:13:09;45.20;;;32.03;;
12774;SDS011;6451;42.630;23.382;2022-12-22T13:15:38;53.73;;;31.80;;
12774;SDS011;6451;42.630;23.382;2022-12-22T13:18:34;45.47;;;31.63;;
12774;SDS011;6451;42.630;23.382;2022-12-22T13:21:05;45.47;;;30.67;;
12774;SDS011;6451;42.630;23.382;2022-12-22T13:23:38;44.43;;;30.83;;
12774;SDS011;6451;42.630;23.382;2022-12-22T13:26:09;46.30;;;31.20;;
12774;SDS011;6451;42.630;23.382;2022-12-22T13:28:40;46.00;;;30.80;;
12774;SDS011;6451;42.630;23.382;2022-12-22T13:31:11;54.67;;;32.60;;
12774;SDS011;6451;42.630;23.382;2022-12-22T13:33:41;44.77;;;30.20;;
12774;SDS011;6451;42.630;23.382;2022-12-22T13:36:14;45.03;;;31.50;;
12774;SDS011;6451;42.630;23.382;2022-12-22T13:38:44;46.93;;;30.73;;
12774;SDS011;6451;42.630;23.382;2022-12-22T13:41:14;45.50;;;30.47;;
12774;SDS011;6451;42.630;23.382;2022-12-22T13:43:42;46.03;;;31.17;;
12774;SDS011;6451;42.630;23.382;2022-12-22T13:46:12;42.70;;;29.47;;
12774;SDS011;6451;42.630;23.382;2022-12-22T13:48:40;45.93;;;31.43;;
12774;SDS011;6451;42.630;23.382;2022-12-22T13:51:11;45.27;;;30.13;;
12774;SDS011;6451;42.630;23.382;2022-12-22T13:53:45;48.73;;;31.17;;
12774;SDS011;6451;42.630;23.382;2022-12-22T13:56:16;47.23;;;31.10;;
12774;SDS011;6451;42.630;23.382;2022-12-22T13:58:45;47.10;;;31.07;;
12774;SDS011;6451;42.630;23.382;2022-12-22T14:01:18;45.07;;;32.13;;
12774;SDS011;6451;42.630;23.382;2022-12-22T14:03:47;46.03;;;31.43;;
12774;SDS011;6451;42.630;23.382;2022-12-22T14:09:10;46.90;;;31.07;;
12774;SDS011;6451;42.630;23.382;2022-12-22T14:11:42;48.03;;;30.50;;
12774;SDS011;6451;42.630;23.382;2022-12-22T14:14:13;45.03;;;30.70;;
12774;SDS011;6451;42.630;23.382;2022-12-22T14:16:44;42.73;;;29.60;;
12774;SDS011;6451;42.630;23.382;2022-12-22T14:19:14;47.97;;;30.83;;
12774;SDS011;6451;42.630;23.382;2022-12-22T14:21:42;48.87;;;31.20;;
12774;SDS011;6451;42.630;23.382;2022-12-22T14:24:15;45.63;;;31.10;;
12774;SDS011;6451;42.630;23.382;2022-12-22T14:26:49;45.23;;;31.80;;
12774;SDS011;6451;42.630;23.382;2022-12-22T14:29:18;47.73;;;32.10;;
12774;SDS011;6451;42.630;23.382;2022-12-22T14:31:51;44.50;;;31.47;;
12774;SDS011;6451;42.630;23.382;2022-12-22T14:34:26;47.10;;;31.50;;
12774;SDS011;6451;42.630;23.382;2022-12-22T14:36:54;49.10;;;32.60;;
12774;SDS011;6451;42.630;23.382;2022-12-22T14:39:22;46.77;;;33.10;;
12774;SDS011;6451;42.630;23.382;2022-12-22T14:41:52;47.57;;;33.27;;
12774;SDS011;6451;42.630;23.382;2022-12-22T14:44:21;56.83;;;35.37;;
12774;SDS011;6451;42.630;23.382;2022-12-22T14:47:04;56.63;;;37.43;;
12774;SDS011;6451;42.630;23.382;2022-12-22T14:49:42;58.43;;;39.20;;
12774;SDS011;6451;42.630;23.382;2022-12-22T14:52:16;59.27;;;39.63;;
12774;SDS011;6451;42.630;23.382;2022-12-22T14:54:47;62.73;;;38.70;;
12774;SDS011;6451;42.630;23.382;2022-12-22T14:57:18;56.67;;;38.23;;
12774;SDS011;6451;42.630;23.382;2022-12-22T14:59:58;63.30;;;37.90;;
12774;SDS011;6451;42.630;23.382;2022-12-22T15:02:27;57.67;;;36.57;;
12774;SDS011;6451;42.630;23.382;2022-12-22T15:05:14;57.37;;;36.80;;
12774;SDS011;6451;42.630;23.382;2022-12-22T15:07:50;60.53;;;36.77;;
12774;SDS011;6451;42.630;23.382;2022-12-22T15:10:19;54.80;;;36.07;;
12774;SDS011;6451;42.630;23.382;2022-12-22T15:12:47;52.37;;;36.10;;
12774;SDS011;6451;42.630;23.382;2022-12-22T15:15:18;58.13;;;36.63;;
12774;SDS011;6451;42.630;23.382;2022-12-22T15:21:03;55.30;;;34.90;;
12774;SDS011;6451;42.630;23.382;2022-12-22T15:23:30;55.70;;;33.40;;
12774;SDS011;6451;42.630;23.382;2022-12-22T15:25:57;52.17;;;34.67;;
12774;SDS011;6451;42.630;23.382;2022-12-22T15:28:25;55.63;;;34.80;;
12774;SDS011;6451;42.630;23.382;2022-12-22T15:30:52;68.90;;;35.27;;